Map

Track Data

SID SEASON NUMBER BASIN SUBBASIN NAME ISO_TIME NATURE LAT LON WMO_WIND WMO_PRES WMO_AGENCY TRACK_TYPE DIST2LAND LANDFALL IFLAG USA_AGENCY USA_ATCF_ID USA_LAT USA_LON USA_RECORD USA_STATUS USA_WIND USA_PRES USA_SSHS USA_R34_NE USA_R34_SE USA_R34_SW USA_R34_NW USA_R50_NE USA_R50_SE USA_R50_SW USA_R50_NW USA_R64_NE USA_R64_SE USA_R64_SW USA_R64_NW USA_POCI USA_ROCI USA_RMW USA_EYE TOKYO_LAT TOKYO_LON TOKYO_GRADE TOKYO_WIND TOKYO_PRES TOKYO_R50_DIR TOKYO_R50_LONG TOKYO_R50_SHORT TOKYO_R30_DIR TOKYO_R30_LONG TOKYO_R30_SHORT TOKYO_LAND CMA_LAT CMA_LON CMA_CAT CMA_WIND CMA_PRES HKO_LAT HKO_LON HKO_CAT HKO_WIND HKO_PRES NEWDELHI_LAT NEWDELHI_LON NEWDELHI_GRADE NEWDELHI_WIND NEWDELHI_PRES NEWDELHI_CI NEWDELHI_DP NEWDELHI_POCI REUNION_LAT REUNION_LON REUNION_TYPE REUNION_WIND REUNION_PRES REUNION_TNUM REUNION_CI REUNION_RMW REUNION_R34_NE REUNION_R34_SE REUNION_R34_SW REUNION_R34_NW REUNION_R50_NE REUNION_R50_SE REUNION_R50_SW REUNION_R50_NW REUNION_R64_NE REUNION_R64_SE REUNION_R64_SW REUNION_R64_NW BOM_LAT BOM_LON BOM_TYPE BOM_WIND BOM_PRES BOM_TNUM BOM_CI BOM_RMW BOM_R34_NE BOM_R34_SE BOM_R34_SW BOM_R34_NW BOM_R50_NE BOM_R50_SE BOM_R50_SW BOM_R50_NW BOM_R64_NE BOM_R64_SE BOM_R64_SW BOM_R64_NW BOM_ROCI BOM_POCI BOM_EYE BOM_POS_METHOD BOM_PRES_METHOD NADI_LAT NADI_LON NADI_CAT NADI_WIND NADI_PRES WELLINGTON_LAT WELLINGTON_LON WELLINGTON_WIND WELLINGTON_PRES DS824_LAT DS824_LON DS824_STAGE DS824_WIND DS824_PRES TD9636_LAT TD9636_LON TD9636_STAGE TD9636_WIND TD9636_PRES TD9635_LAT TD9635_LON TD9635_WIND TD9635_PRES TD9635_ROCI NEUMANN_LAT NEUMANN_LON NEUMANN_CLASS NEUMANN_WIND NEUMANN_PRES MLC_LAT MLC_LON MLC_CLASS MLC_WIND MLC_PRES USA_GUST BOM_GUST BOM_GUST_PER REUNION_GUST REUNION_GUST_PER USA_SEAHGT USA_SEARAD_NE USA_SEARAD_SE USA_SEARAD_SW USA_SEARAD_NW STORM_SPEED STORM_DIR
1862060S19101 1862 8 SI WA NOT_NAMED 1862-03-01 00:00:00 NR -19.3000 100.600 main 1398 1398 __________O___ -1 -19.3000 100.600 7 3 270
1862060S19101 1862 8 SI WA NOT_NAMED 1862-03-01 03:00:00 NR -19.3001 100.461 main 1408 1408 __________P___ -1 -19.3001 100.461 7 1 288
1862060S19101 1862 8 SI WA NOT_NAMED 1862-03-01 06:00:00 NR -19.2825 100.538 main 1408 1408 _____O____P___ -1 -19.2000 101.200 99 9.90000 -19.3101 100.317 7 0 0
1862060S19101 1862 8 SI WA NOT_NAMED 1862-03-01 09:00:00 NR -19.2912 100.470 main 1408 1408 _____P____P___ -1 -19.1937 101.080 99 -19.3400 100.165 7 1 257
1862060S19101 1862 8 SI WA NOT_NAMED 1862-03-01 12:00:00 NR -19.3101 100.410 main 1418 1418 _____P____O___ -1 -19.1903 100.957 99 -19.4000 100.000 7 1 249
1862060S19101 1862 8 SI WA NOT_NAMED 1862-03-01 15:00:00 NR -19.3445 100.323 main 1428 1425 _____P____P___ -1 -19.1928 100.828 99 -19.4962 99.8185 7 3 247
1862060S19101 1862 8 SI WA NOT_NAMED 1862-03-01 18:00:00 NR -19.4122 100.157 main 1435 1435 _____P____P___ -1 -19.2044 100.691 99 -19.6200 99.6226 7 4 245
1862060S19101 1862 8 SI WA NOT_NAMED 1862-03-01 21:00:00 NR -19.4933 99.9790 main 1452 1452 _____P____P___ -1 -19.2279 100.543 99 -19.7587 99.4153 7 4 244
1862060S19101 1862 8 SI WA NOT_NAMED 1862-03-02 00:00:00 NR -19.5832 99.7900 main 1469 1469 _____P____O___ -1 -19.2663 100.380 99 -19.9000 99.2000 7 4 244
1862060S19101 1862 8 SI WA NOT_NAMED 1862-03-02 03:00:00 NR -19.6759 99.5830 main 1486 1486 _____P____P___ -1 -19.3227 100.200 99 -20.0291 98.9660 7 4 244
1862060S19101 1862 8 SI WA NOT_NAMED 1862-03-02 06:00:00 NR -19.7788 99.3638 main 1504 1504 _____O____P___ -1 -19.4000 100.000 99 9.90000 -20.1576 98.7276 7 5 243
1862060S19101 1862 8 SI WA NOT_NAMED 1862-03-02 09:00:00 NR -19.8911 99.1394 main 1531 1531 _____P____P___ -1 -19.4999 99.7785 99 -20.2823 98.5004 7 5 241
1862060S19101 1862 8 SI WA NOT_NAMED 1862-03-02 12:00:00 NR -20.0096 98.9200 main 1549 1549 _____P____O___ -1 -19.6192 99.5399 99 -20.4000 98.3000 7 5 239
1862060S19101 1862 8 SI WA NOT_NAMED 1862-03-02 15:00:00 NR -20.1283 98.7183 main 1567 1564 _____P____P___ -1 -19.7536 99.2906 99 -20.5030 98.1460 7 4 237
1862060S19101 1862 8 SI WA NOT_NAMED 1862-03-02 18:00:00 NR -20.2492 98.5282 main 1585 1582 _____P____P___ -1 -19.8986 99.0367 99 -20.5998 98.0197 7 4 235
1862060S19101 1862 8 SI WA NOT_NAMED 1862-03-02 21:00:00 NR -20.3734 98.3465 main 1600 1600 _____P____P___ -1 -20.0501 98.7843 99 -20.6967 97.9086 7 4 233
1862060S19101 1862 8 SI WA NOT_NAMED 1862-03-03 00:00:00 NR -20.5018 98.1699 main 1608 1608 _____P____O___ -1 -20.2036 98.5399 99 -20.8000 97.8000 7 4 232
1862060S19101 1862 8 SI WA NOT_NAMED 1862-03-03 03:00:00 NR -20.6346 97.9968 main 1627 1624 _____P____P___ -1 -20.3550 98.3096 99 -20.9142 97.6839 7 4 231
1862060S19101 1862 8 SI WA NOT_NAMED 1862-03-03 06:00:00 NR -20.7304 97.8687 main 1635 1635 _____O____P___ -1 -20.5000 98.1000 99 9.90000 -21.0377 97.5603 7 3 232
1862060S19101 1862 8 SI WA NOT_NAMED 1862-03-03 09:00:00 NR -20.8059 97.7619 main 1643 1643 _____P____P___ -1 -20.6252 97.9270 99 -21.1673 97.4315 7 2 234
1862060S19101 1862 8 SI WA NOT_NAMED 1862-03-03 12:00:00 NR -20.8575 97.6780 main 1651 1651 _____P____O___ -1 -20.7468 97.7725 99 -21.3000 97.3000 7 1 243
1862060S19101 1862 8 SI WA NOT_NAMED 1862-03-03 15:00:00 NR -20.8648 97.6340 main 1662 1662 _____P________ -1 -20.8648 97.6340 99 7 2 232
1862060S19101 1862 8 SI WA NOT_NAMED 1862-03-03 18:00:00 NR -20.9792 97.5093 main 1670 1670 _____P________ -1 -20.9792 97.5093 99 7 3 225
1862060S19101 1862 8 SI WA NOT_NAMED 1862-03-03 21:00:00 NR -21.0900 97.3959 main 1679 1679 _____P________ -1 -21.0900 97.3959 99 7 3 223
1862060S19101 1862 8 SI WA NOT_NAMED 1862-03-04 00:00:00 NR -21.1970 97.2914 main 1686 1686 _____P________ -1 -21.1970 97.2914 99 3 222
1862060S19101 1862 8 SI WA NOT_NAMED 1862-03-04 03:00:00 NR -21.3004 97.1936 main 1693 1693 _____P________ -1 -21.3004 97.1936 99 3 221
1862060S19101 1862 8 SI WA NOT_NAMED 1862-03-04 06:00:00 NR -21.4000 97.1000 main 1701 1701 _____O________ -1 -21.4000 97.1000 99 9.90000 3 221
1862060S19101 1862 8 SI WA NOT_NAMED 1862-03-04 09:00:00 NR -21.4959 97.0086 main 1708 1705 _____P________ -1 -21.4959 97.0086 99 3 222
1862060S19101 1862 8 SI WA NOT_NAMED 1862-03-04 12:00:00 NR -21.5884 96.9188 main 1715 1713 _____P________ -1 -21.5884 96.9188 99 2 222
1862060S19101 1862 8 SI WA NOT_NAMED 1862-03-04 15:00:00 NR -21.6781 96.8303 main 1723 1720 _____P________ -1 -21.6781 96.8303 99 2 223
1862060S19101 1862 8 SI WA NOT_NAMED 1862-03-04 18:00:00 NR -21.7654 96.7430 main 1730 1730 _____P________ -1 -21.7654 96.7430 99 2 223
1862060S19101 1862 8 SI WA NOT_NAMED 1862-03-04 21:00:00 NR -21.8508 96.6565 main 1728 1728 _____P________ -1 -21.8508 96.6565 99 2 223
1862060S19101 1862 8 SI WA NOT_NAMED 1862-03-05 00:00:00 NR -21.9347 96.5707 main 1738 1735 _____P________ -1 -21.9347 96.5707 99 2 224
1862060S19101 1862 8 SI WA NOT_NAMED 1862-03-05 03:00:00 NR -22.0176 96.4853 main 1745 1745 _____P________ -1 -22.0176 96.4853 99 2 223
1862060S19101 1862 8 SI WA NOT_NAMED 1862-03-05 06:00:00 NR -22.1000 96.4000 main 1753 _____O________ -1 -22.1000 96.4000 99 9.90000 2 223

About IBTrACS Database

This database is a web-friendly format of International Best Track Archive for Climate Stewardship (IBTrACS), a global best track data archive curated by NOAA dating back to 1842.

Updated: 2021-12-08